Time;durP1;ratioP1;P1;durP2;ratioP2;P2;SDS_P1;SDS_P2;PMS_P1;PMS_P2;Temp;Humidity;BMP_temperature;BMP_pressure;BME280_temperature;BME280_humidity;BME280_pressure;Samples;Min_cycle;Max_cycle;Signal;HPM_P1;HPM_P2
2023/03/22 00:00:43;;;;;;;5.70;4.10;;;;;;;7.53;84.25;98813.05;105958;1254;62372;-22
2023/03/22 00:03:13;;;;;;;4.80;3.60;;;;;;;7.54;83.56;98818.48;105916;1255;61635;-22
2023/03/22 00:05:44;;;;;;;5.00;3.80;;;;;;;7.40;83.55;98821.89;105949;1253;74569;-22
2023/03/22 00:08:32;;;;;;;5.70;3.70;;;;;;;7.21;83.83;98820.11;105725;1253;77023;-24
2023/03/22 00:11:03;;;;;;;5.80;3.90;;;;;;;7.02;83.97;98817.46;105701;1257;74216;-25
2023/03/22 00:13:33;;;;;;;4.90;3.10;;;;;;;6.90;84.41;98817.48;105855;1251;63609;-24
2023/03/22 00:16:03;;;;;;;5.60;3.00;;;;;;;7.37;84.24;98815.86;105733;1258;61886;-25
2023/03/22 00:18:37;;;;;;;5.40;3.60;;;;;;;7.95;82.37;98809.62;105660;1253;74625;-22
2023/03/22 00:21:12;;;;;;;5.40;3.10;;;;;;;8.02;81.31;98811.38;105625;1257;75860;-24
2023/03/22 00:23:40;;;;;;;6.50;3.70;;;;;;;7.83;81.07;98811.17;105643;1253;73235;-24
2023/03/22 00:26:10;;;;;;;4.90;3.70;;;;;;;7.59;81.45;98812.21;105576;1251;61155;-24
2023/03/22 00:28:39;;;;;;;5.60;3.90;;;;;;;7.35;81.93;98820.50;105522;1253;61131;-24
2023/03/22 00:31:08;;;;;;;7.00;2.80;;;;;;;7.09;82.69;98818.23;105889;1253;74607;-25
2023/03/22 00:33:37;;;;;;;4.00;2.70;;;;;;;7.41;82.77;98819.77;105850;1253;76006;-25
2023/03/22 00:36:09;;;;;;;4.70;3.10;;;;;;;7.86;81.47;98815.81;105753;1254;74529;-24
2023/03/22 00:38:42;;;;;;;4.30;3.00;;;;;;;7.83;80.77;98818.41;105875;1258;61113;-25
2023/03/22 00:41:20;;;;;;;5.40;3.20;;;;;;;7.62;81.05;98820.66;105953;1251;61850;-25
2023/03/22 00:43:48;;;;;;;4.30;3.10;;;;;;;7.34;81.38;98816.96;105712;1253;74643;-22
2023/03/22 00:46:18;;;;;;;4.70;3.30;;;;;;;7.04;82.13;98817.20;105933;1254;75723;-24
2023/03/22 00:48:47;;;;;;;5.00;3.20;;;;;;;6.78;83.17;98816.59;105629;1258;74214;-24
2023/03/22 00:51:17;;;;;;;3.60;2.90;;;;;;;7.10;83.69;98815.73;105584;1257;61113;-23
2023/03/22 00:53:48;;;;;;;4.70;3.10;;;;;;;7.55;82.19;98811.97;105704;1257;61748;-24
2023/03/22 00:56:18;;;;;;;4.90;3.20;;;;;;;7.58;81.59;98811.82;105906;1253;74338;-24
2023/03/22 00:58:55;;;;;;;4.90;3.50;;;;;;;7.37;81.45;98810.06;105711;1255;75838;-26
2023/03/22 01:01:24;;;;;;;5.00;3.60;;;;;;;7.09;81.96;98807.88;105736;1253;74241;-24
2023/03/22 01:03:55;;;;;;;7.30;3.80;;;;;;;6.76;82.75;98803.20;105759;1258;61183;-25
2023/03/22 01:06:24;;;;;;;4.00;2.60;;;;;;;6.48;83.67;98803.43;105954;1251;61604;-24
2023/03/22 01:08:53;;;;;;;4.40;2.90;;;;;;;6.82;83.75;98808.17;105771;1258;74493;-25
2023/03/22 01:11:23;;;;;;;4.30;3.20;;;;;;;7.26;82.32;98809.05;105731;1253;76082;-24
2023/03/22 01:13:53;;;;;;;4.90;3.50;;;;;;;7.19;81.68;98806.42;105725;1253;73002;-23
2023/03/22 01:16:22;;;;;;;4.70;3.50;;;;;;;6.92;82.00;98805.05;105878;1251;62067;-23
2023/03/22 01:18:51;;;;;;;5.40;3.90;;;;;;;6.54;82.48;98801.77;105794;1257;62032;-23
2023/03/22 01:21:20;;;;;;;4.60;3.90;;;;;;;6.23;83.24;98797.37;105794;1254;74152;-23
2023/03/22 01:23:50;;;;;;;5.80;4.40;;;;;;;5.92;83.66;98800.22;105765;1253;75794;-23
2023/03/22 01:26:19;;;;;;;3.60;2.80;;;;;;;5.67;84.27;98802.54;105767;1253;73924;-23
2023/03/22 01:28:48;;;;;;;4.70;2.80;;;;;;;6.04;84.54;98808.95;105611;1257;61925;-23
2023/03/22 01:31:17;;;;;;;4.50;3.10;;;;;;;6.49;82.86;98809.38;105559;1254;61675;-23
2023/03/22 01:33:45;;;;;;;4.80;3.40;;;;;;;6.47;82.20;98809.70;105923;1253;74466;-23
2023/03/22 01:36:14;;;;;;;4.30;3.30;;;;;;;6.29;82.82;98810.92;105810;1253;76092;-23
2023/03/22 01:38:43;;;;;;;4.30;3.40;;;;;;;6.04;83.31;98812.74;105735;1254;74691;-23
2023/03/22 01:41:11;;;;;;;4.00;3.10;;;;;;;5.78;83.94;98815.10;105623;1258;61976;-23
2023/03/22 01:43:41;;;;;;;2.20;1.80;;;;;;;5.57;84.15;98814.37;105741;1253;61978;-23
2023/03/22 01:46:11;;;;;;;3.70;2.60;;;;;;;5.97;84.59;98813.66;105834;1255;73543;-24
2023/03/22 01:48:44;;;;;;;2.70;2.10;;;;;;;6.56;83.62;98814.10;105708;1259;76296;-23
2023/03/22 01:51:19;;;;;;;3.20;2.10;;;;;;;6.67;82.77;98812.49;105632;1254;74661;-23
2023/03/22 01:54:25;;;;;;;3.60;2.60;;;;;;;6.46;82.71;98814.42;105279;1259;61955;-23
2023/03/22 01:56:54;;;;;;;3.90;2.70;;;;;;;6.25;82.61;98808.45;105636;1258;61594;-23
2023/03/22 01:59:30;;;;;;;5.20;3.60;;;;;;;5.98;82.46;98811.75;105806;1253;74426;-23
2023/03/22 02:02:13;;;;;;;4.00;2.50;;;;;;;5.77;83.16;98814.30;105930;1253;75719;-23
2023/03/22 02:04:42;;;;;;;3.80;2.40;;;;;;;6.26;83.31;98816.79;105711;1254;74173;-23
2023/03/22 02:07:14;;;;;;;4.20;3.00;;;;;;;6.79;82.41;98816.18;105789;1253;61894;-23
2023/03/22 02:09:47;;;;;;;7.20;3.80;;;;;;;6.89;82.05;98817.85;105282;1261;61597;-23
2023/03/22 02:12:30;;;;;;;8.90;5.60;;;;;;;6.60;83.19;98823.80;105942;1256;74335;-23
2023/03/22 02:15:11;;;;;;;5.30;3.80;;;;;;;6.35;84.17;98821.86;105843;1257;74842;-23
2023/03/22 02:18:20;;;;;;;6.90;4.30;;;;;;;6.07;84.11;98824.77;105674;1253;74336;-23
2023/03/22 02:21:11;;;;;;;4.20;3.20;;;;;;;5.87;85.23;98826.23;105699;1258;63846;-23
2023/03/22 02:24:03;;;;;;;6.50;4.30;;;;;;;6.59;84.66;98823.92;105709;1255;61687;-23
2023/03/22 02:26:40;;;;;;;7.60;4.30;;;;;;;7.11;83.12;98830.33;105828;1253;74301;-23
2023/03/22 02:29:14;;;;;;;5.90;4.50;;;;;;;7.07;82.59;98835.63;105786;1258;76230;-23
2023/03/22 02:31:49;;;;;;;7.30;5.60;;;;;;;6.87;82.91;98834.72;105663;1253;74257;-23
2023/03/22 02:34:44;;;;;;;7.80;6.00;;;;;;;6.59;84.71;98833.35;105610;1253;61934;-23
2023/03/22 02:37:27;;;;;;;8.40;5.60;;;;;;;6.38;85.75;98834.27;105632;1253;61863;-23
2023/03/22 02:39:59;;;;;;;6.30;3.70;;;;;;;6.25;86.82;98840.15;105581;1254;75090;-23
2023/03/22 02:42:33;;;;;;;5.80;3.80;;;;;;;6.82;86.48;98839.70;105762;1253;75392;-23
2023/03/22 02:45:17;;;;;;;8.20;5.30;;;;;;;7.38;84.30;98835.83;105703;1253;73197;-23
2023/03/22 02:48:04;;;;;;;;;;;;;;;7.16;83.77;98835.36;105688;1258;61139;-23
2023/03/22 02:50:44;;;;;;;7.20;4.90;;;;;;;6.97;84.50;98831.81;105968;1256;61429;-23
2023/03/22 02:53:18;;;;;;;7.20;5.20;;;;;;;6.73;84.61;98832.23;105538;1253;74997;-23
2023/03/22 02:55:53;;;;;;;6.70;4.20;;;;;;;6.55;85.07;98834.85;105635;1261;75930;-23
2023/03/22 02:58:32;;;;;;;5.30;3.40;;;;;;;6.43;85.34;98836.70;105703;1251;73190;-23
2023/03/22 03:01:06;;;;;;;5.40;3.20;;;;;;;6.98;85.16;98842.42;105622;1253;61068;-23
2023/03/22 03:04:41;;;;;;;6.10;4.50;;;;;;;7.58;82.97;98844.08;102573;1297;599553;-22
2023/03/22 03:07:11;;;;;;;5.40;4.10;;;;;;;7.49;82.33;98850.95;104678;1275;61248;-24
2023/03/22 03:09:40;;;;;;;6.00;4.80;;;;;;;7.29;82.50;98852.01;104778;1272;61882;-24
2023/03/22 03:12:19;;;;;;;7.70;5.80;;;;;;;6.91;83.47;98851.70;104723;1269;72385;-23
2023/03/22 03:14:48;;;;;;;8.50;5.90;;;;;;;6.45;85.89;98850.56;104724;1273;75802;-24
2023/03/22 03:17:35;;;;;;;6.40;4.30;;;;;;;6.28;87.51;98855.64;103214;1272;2197066;-24
2023/03/22 03:20:29;;;;;;;9.70;5.20;;;;;;;6.86;86.46;98854.63;105514;1263;61974;-24
2023/03/22 03:23:13;;;;;;;6.60;4.70;;;;;;;7.28;84.04;98862.45;105290;1262;61122;-24
2023/03/22 03:25:51;;;;;;;11.60;5.90;;;;;;;7.11;84.40;98860.73;105252;1260;73066;-24
2023/03/22 03:28:37;;;;;;;8.50;6.30;;;;;;;6.98;84.89;98864.54;105161;1264;76437;-24
2023/03/22 03:31:42;;;;;;;22.60;13.30;;;;;;;6.75;85.62;98860.77;105097;1262;73945;-23
2023/03/22 03:34:14;;;;;;;12.60;8.50;;;;;;;6.40;88.26;98868.80;105372;1258;63374;-23
2023/03/22 03:36:49;;;;;;;45.70;25.60;;;;;;;6.85;87.06;98869.38;105119;1257;61061;-24
2023/03/22 03:39:17;;;;;;;26.30;15.70;;;;;;;6.83;86.29;98869.04;105080;1262;74647;-23
2023/03/22 03:41:46;;;;;;;48.20;28.40;;;;;;;7.03;86.24;98872.11;105152;1260;75579;-23
2023/03/22 03:44:15;;;;;;;13.10;9.00;;;;;;;6.84;85.84;98869.11;105318;1258;74140;-23
2023/03/22 03:46:45;;;;;;;11.80;8.10;;;;;;;6.52;87.06;98871.80;105189;1262;61880;-24
2023/03/22 03:49:15;;;;;;;6.20;4.80;;;;;;;6.14;89.23;98877.05;105579;1262;61670;-22
2023/03/22 03:51:48;;;;;;;8.60;6.10;;;;;;;6.62;89.03;98880.41;105359;1263;74275;-22
2023/03/22 03:54:16;;;;;;;10.80;7.60;;;;;;;6.93;86.79;98881.61;105171;1265;76213;-22
2023/03/22 03:56:46;;;;;;;12.20;6.80;;;;;;;6.73;86.52;98880.06;105145;1263;74432;-22
2023/03/22 03:59:15;;;;;;;122.90;48.00;;;;;;;6.56;87.52;98881.39;105074;1259;61891;-23
2023/03/22 04:01:51;;;;;;;27.00;12.10;;;;;;;6.04;90.15;98879.41;105212;1263;61176;-23
2023/03/22 04:04:35;;;;;;;97.80;30.40;;;;;;;6.23;90.92;98884.52;105155;1271;74547;-23
2023/03/22 04:07:05;;;;;;;33.30;15.60;;;;;;;6.56;89.02;98883.11;105561;1266;75789;-25
2023/03/22 04:09:36;;;;;;;37.30;23.40;;;;;;;6.72;87.32;98886.18;105177;1258;74304;-25
2023/03/22 04:12:32;;;;;;;20.90;15.70;;;;;;;6.44;87.61;98889.90;105153;1263;61556;-24
2023/03/22 04:15:12;;;;;;;27.00;19.00;;;;;;;5.94;90.28;98887.14;105275;1261;61756;-24
2023/03/22 04:17:41;;;;;;;39.20;20.90;;;;;;;6.30;91.03;98890.49;105346;1263;73787;-24
2023/03/22 04:20:12;;;;;;;35.20;19.20;;;;;;;6.92;89.13;98892.41;105238;1266;75459;-25
2023/03/22 04:22:41;;;;;;;45.80;25.00;;;;;;;7.03;86.63;98890.77;105085;1263;74189;-22
2023/03/22 04:25:12;;;;;;;83.00;41.10;;;;;;;6.93;86.50;98893.02;105144;1258;62037;-22
2023/03/22 04:27:50;;;;;;;54.10;28.70;;;;;;;6.76;86.54;98896.60;105105;1258;61787;-22
2023/03/22 04:30:20;;;;;;;18.40;10.60;;;;;;;6.64;86.79;98898.62;105464;1263;74585;-22
2023/03/22 04:33:05;;;;;;;18.10;12.20;;;;;;;7.18;86.39;98900.64;105107;1261;75941;-22
2023/03/22 04:35:47;;;;;;;18.60;11.20;;;;;;;7.69;84.35;98903.63;105136;1258;74248;-22
2023/03/22 04:38:17;;;;;;;13.90;10.70;;;;;;;7.71;83.65;98905.23;105125;1257;61166;-23
2023/03/22 04:40:46;;;;;;;14.00;9.50;;;;;;;7.57;83.35;98903.61;105184;1258;61711;-22
2023/03/22 04:43:22;;;;;;;9.70;6.80;;;;;;;7.33;83.54;98903.75;105275;1258;74596;-22
2023/03/22 04:46:02;;;;;;;8.60;6.70;;;;;;;7.05;84.00;98903.94;105548;1263;75314;-22
2023/03/22 04:48:38;;;;;;;4.70;3.60;;;;;;;6.87;84.71;98903.94;105184;1263;74034;-22
2023/03/22 04:51:07;;;;;;;5.50;4.30;;;;;;;7.33;84.37;98905.26;105046;1257;61152;-24
2023/03/22 04:53:40;;;;;;;;;;;;;;;7.82;82.84;98911.11;105113;1258;61156;-22
2023/03/22 04:56:11;;;;;;;6.30;4.70;;;;;;;7.81;82.05;98913.66;105447;1270;73574;-22
2023/03/22 04:58:41;;;;;;;6.60;5.10;;;;;;;7.57;82.46;98911.73;105103;1261;75827;-22
2023/03/22 05:01:14;;;;;;;7.80;5.50;;;;;;;7.29;83.36;98914.84;105063;1263;74264;-23
2023/03/22 05:03:46;;;;;;;8.30;5.90;;;;;;;7.04;84.00;98914.85;105062;1260;61859;-23
2023/03/22 05:06:15;;;;;;;4.80;3.40;;;;;;;6.77;85.21;98912.21;105261;1263;61062;-22
2023/03/22 05:08:59;;;;;;;9.40;7.20;;;;;;;7.16;85.52;98913.33;105346;1264;74609;-23
2023/03/22 05:11:29;;;;;;;17.70;11.70;;;;;;;7.38;84.49;98910.13;105199;1264;75375;-23
2023/03/22 05:14:17;;;;;;;28.00;16.50;;;;;;;7.51;83.85;98913.02;105294;1262;74301;-22
2023/03/22 05:16:50;;;;;;;24.70;12.60;;;;;;;7.38;84.25;98912.19;105381;1270;61169;-23
2023/03/22 05:19:21;;;;;;;15.90;8.50;;;;;;;7.21;84.80;98916.27;105403;1258;60933;-22
2023/03/22 05:21:56;;;;;;;78.80;28.10;;;;;;;7.01;85.23;98912.50;105158;1261;74487;-22
2023/03/22 05:24:36;;;;;;;17.90;8.50;;;;;;;6.92;85.80;98911.72;105116;1263;75878;-22
2023/03/22 05:27:05;;;;;;;14.00;7.80;;;;;;;7.50;85.32;98914.94;105162;1257;74018;-23
2023/03/22 05:29:38;;;;;;;13.70;9.00;;;;;;;8.08;82.65;98920.55;105090;1268;61870;-23
2023/03/22 05:32:10;;;;;;;13.00;8.30;;;;;;;7.65;82.00;98918.42;105254;1262;61866;-23
2023/03/22 05:34:44;;;;;;;14.10;9.20;;;;;;;7.39;83.92;98914.52;105454;1263;74611;-23
2023/03/22 05:37:28;;;;;;;12.30;8.10;;;;;;;7.31;84.25;98920.98;105307;1260;74767;-23
2023/03/22 05:40:04;;;;;;;11.40;7.00;;;;;;;7.15;84.38;98928.07;105275;1263;74394;-23
2023/03/22 05:42:37;;;;;;;12.60;6.60;;;;;;;7.12;84.94;98929.73;105065;1264;62233;-22
2023/03/22 05:45:15;;;;;;;9.40;6.50;;;;;;;7.52;84.13;98932.48;105236;1261;61702;-22
2023/03/22 05:47:47;;;;;;;9.70;6.60;;;;;;;7.68;83.51;98938.78;105566;1263;74497;-23
2023/03/22 05:50:21;;;;;;;12.40;7.60;;;;;;;7.63;83.47;98943.23;105234;1257;75537;-23
2023/03/22 05:52:52;;;;;;;20.50;10.90;;;;;;;7.52;83.41;98954.70;105136;1263;73929;-22
2023/03/22 05:55:43;;;;;;;11.00;5.70;;;;;;;7.24;83.64;98951.46;105085;1263;61985;-22
2023/03/22 05:58:17;;;;;;;8.10;5.80;;;;;;;6.85;85.01;98953.60;105235;1263;61510;-23
2023/03/22 06:00:50;;;;;;;9.20;5.80;;;;;;;7.21;85.30;98954.77;105189;1258;74442;-23
2023/03/22 06:03:26;;;;;;;10.50;6.80;;;;;;;7.66;83.57;98958.09;105158;1262;75691;-23
2023/03/22 06:06:10;;;;;;;16.20;8.80;;;;;;;7.67;83.05;98959.91;105150;1258;73231;-22
2023/03/22 06:08:45;;;;;;;15.30;9.10;;;;;;;7.53;82.87;98961.92;105478;1261;61886;-22
2023/03/22 06:11:21;;;;;;;14.00;9.00;;;;;;;7.36;83.21;98958.46;105377;1256;61698;-22
2023/03/22 06:13:50;;;;;;;12.00;8.30;;;;;;;7.05;83.86;98961.05;105391;1260;74606;-22
2023/03/22 06:16:23;;;;;;;11.50;8.10;;;;;;;6.96;85.35;98959.74;105528;1258;75659;-22
2023/03/22 06:18:52;;;;;;;14.60;8.40;;;;;;;7.52;84.13;98960.46;105422;1254;72865;-22
2023/03/22 06:21:21;;;;;;;11.60;7.70;;;;;;;7.65;82.75;98967.13;105483;1254;61927;-22
2023/03/22 06:23:50;;;;;;;12.40;8.70;;;;;;;7.55;82.95;98966.80;105514;1255;62068;-22
2023/03/22 06:26:19;;;;;;;14.80;8.60;;;;;;;7.35;83.78;98968.03;105413;1255;74553;-22
2023/03/22 06:28:48;;;;;;;11.40;6.80;;;;;;;7.23;84.04;98967.11;105487;1259;74898;-22
2023/03/22 06:31:17;;;;;;;16.20;7.40;;;;;;;7.15;84.59;98968.83;105523;1254;74167;-22
2023/03/22 06:33:53;;;;;;;10.40;6.50;;;;;;;7.69;84.40;98973.25;105495;1254;61955;-22
2023/03/22 06:36:42;;;;;;;13.20;7.20;;;;;;;8.30;81.85;98973.39;105408;1260;61936;-22
2023/03/22 06:39:14;;;;;;;14.90;8.60;;;;;;;8.39;80.81;98977.41;105443;1257;73506;-22
2023/03/22 06:41:44;;;;;;;13.30;7.90;;;;;;;8.29;80.23;98981.48;105509;1254;74506;-22
2023/03/22 06:44:13;;;;;;;16.10;8.70;;;;;;;8.08;79.95;98981.20;105456;1254;73928;-22
2023/03/22 06:46:51;;;;;;;12.10;8.10;;;;;;;7.96;81.02;98981.59;105483;1254;61841;-23
2023/03/22 06:49:39;;;;;;;8.40;5.50;;;;;;;7.85;81.52;98979.01;105461;1257;61162;-23
2023/03/22 06:52:08;;;;;;;11.50;7.00;;;;;;;8.41;81.24;98983.54;105508;1259;74507;-23
2023/03/22 06:54:38;;;;;;;13.60;8.10;;;;;;;8.93;79.25;98982.96;105493;1257;74715;-23
2023/03/22 06:57:06;;;;;;;11.20;7.20;;;;;;;9.06;78.55;98984.41;105380;1257;74129;-22
2023/03/22 06:59:37;;;;;;;9.20;6.00;;;;;;;9.07;77.51;98981.09;105518;1258;62171;-22
2023/03/22 07:02:05;;;;;;;8.50;6.00;;;;;;;8.95;76.92;98977.64;105557;1254;61984;-23
2023/03/22 07:04:35;;;;;;;11.30;6.00;;;;;;;8.87;76.52;98977.94;105478;1255;74548;-22
2023/03/22 07:07:04;;;;;;;10.00;6.40;;;;;;;8.76;76.59;98978.53;105447;1254;75561;-22
2023/03/22 07:09:35;;;;;;;6.70;4.40;;;;;;;8.64;77.13;98980.14;105468;1254;74047;-22
2023/03/22 07:12:05;;;;;;;8.30;5.50;;;;;;;9.12;77.23;98981.58;105522;1254;61785;-22
2023/03/22 07:14:35;;;;;;;9.90;6.30;;;;;;;9.56;75.42;98983.07;105454;1254;61165;-21
2023/03/22 07:17:30;;;;;;;8.10;5.70;;;;;;;9.70;74.36;98983.51;105406;1254;74880;-22
2023/03/22 07:20:02;;;;;;;11.60;6.50;;;;;;;9.53;73.48;98979.63;105429;1257;75860;-22
2023/03/22 07:22:32;;;;;;;10.70;7.00;;;;;;;9.19;73.89;98979.15;105520;1255;73170;-23
2023/03/22 07:25:05;;;;;;;;;;;;;;;9.17;75.07;98976.71;105633;1257;61658;-23
2023/03/22 07:27:50;;;;;;;10.10;6.80;;;;;;;9.28;75.15;98976.83;105631;1256;61379;-24
2023/03/22 07:30:21;;;;;;;9.70;6.90;;;;;;;9.43;74.20;98974.20;105710;1254;75517;-23
2023/03/22 07:32:52;;;;;;;9.00;6.60;;;;;;;9.52;74.64;98977.80;105679;1254;75576;-23
2023/03/22 07:35:20;;;;;;;10.20;6.30;;;;;;;9.73;73.58;98977.23;105700;1254;74195;-23
2023/03/22 07:37:51;;;;;;;11.30;7.40;;;;;;;9.92;72.28;98975.34;105478;1254;61450;-22
2023/03/22 07:40:32;;;;;;;10.80;7.10;;;;;;;9.82;73.07;98972.20;105484;1255;61644;-22
2023/03/22 07:43:01;;;;;;;15.50;9.00;;;;;;;10.04;73.11;98974.39;105527;1255;75321;-22
2023/03/22 07:45:52;;;;;;;11.00;7.10;;;;;;;10.34;71.60;98973.77;105679;1259;75895;-22
2023/03/22 07:48:49;;;;;;;10.00;6.90;;;;;;;10.61;70.69;98976.80;105558;1254;75209;-22
2023/03/22 07:51:42;;;;;;;8.90;6.30;;;;;;;10.90;70.12;98975.77;105257;1254;61664;-22
2023/03/22 07:54:10;;;;;;;12.60;7.80;;;;;;;11.04;68.68;98975.98;105506;1254;61061;-23
2023/03/22 07:56:50;;;;;;;24.50;13.00;;;;;;;10.91;67.52;98976.73;105483;1254;75164;-22
2023/03/22 07:59:19;;;;;;;15.30;9.10;;;;;;;11.01;68.69;98978.29;105585;1257;75706;-22
2023/03/22 08:01:50;;;;;;;11.20;7.90;;;;;;;11.35;67.55;98972.69;105526;1255;73811;-22
2023/03/22 08:04:25;;;;;;;8.80;5.50;;;;;;;11.82;66.22;98974.21;105602;1254;61866;-22
2023/03/22 08:06:58;;;;;;;7.80;5.20;;;;;;;12.15;63.05;98972.60;105508;1259;61839;-24
2023/03/22 08:09:28;;;;;;;6.70;4.60;;;;;;;12.41;61.91;98976.20;105464;1254;75551;-24
2023/03/22 08:11:57;;;;;;;9.10;6.30;;;;;;;12.67;62.39;98972.45;105578;1257;75900;-23
2023/03/22 08:14:25;;;;;;;8.40;5.40;;;;;;;12.93;61.32;98972.73;105466;1254;74224;-24
2023/03/22 08:17:06;;;;;;;7.40;5.00;;;;;;;13.09;60.82;98973.30;105433;1257;61666;-24
2023/03/22 08:19:35;;;;;;;13.30;7.70;;;;;;;13.26;58.91;98974.23;105452;1260;61844;-23
2023/03/22 08:22:05;;;;;;;7.80;5.30;;;;;;;13.35;59.29;98974.37;105461;1258;75043;-23
2023/03/22 08:25:09;;;;;;;7.70;4.90;;;;;;;13.44;59.17;98970.44;105006;1264;76255;-23
2023/03/22 08:27:39;;;;;;;7.00;4.70;;;;;;;13.56;58.96;98970.77;105408;1254;74149;-23
2023/03/22 08:30:08;;;;;;;5.70;3.60;;;;;;;13.59;58.94;98971.00;105436;1255;61959;-23
2023/03/22 08:32:37;;;;;;;6.00;3.60;;;;;;;13.72;57.04;98971.48;105124;1254;61066;-24
2023/03/22 08:42:44;;;;;;;4.90;3.50;;;;;;;14.20;54.63;98971.21;102676;1293;600243;-23
2023/03/22 08:45:14;;;;;;;4.70;2.80;;;;;;;14.32;54.52;98972.22;104918;1264;61722;-23
2023/03/22 08:47:49;;;;;;;4.90;2.90;;;;;;;14.38;53.21;98969.95;105087;1269;62124;-23
2023/03/22 08:50:18;;;;;;;4.40;3.10;;;;;;;14.53;52.23;98972.59;105104;1267;73862;-23
2023/03/22 08:52:53;;;;;;;5.50;3.70;;;;;;;14.53;54.28;98979.23;105149;1264;75815;-23
2023/03/22 08:55:28;;;;;;;8.10;3.60;;;;;;;14.42;55.29;98982.20;103557;1264;2113699;-24
2023/03/22 08:58:23;;;;;;;5.30;4.00;;;;;;;14.52;54.76;98980.48;104988;1263;61894;-22
2023/03/22 09:00:55;;;;;;;5.10;3.80;;;;;;;14.65;54.35;98981.68;105204;1265;61913;-22
2023/03/22 09:03:44;;;;;;;6.20;4.70;;;;;;;13.88;54.77;98977.40;105171;1264;73969;-23
2023/03/22 09:06:12;;;;;;;6.80;4.50;;;;;;;13.21;57.20;98982.66;105107;1264;75778;-23
2023/03/22 09:08:42;;;;;;;5.10;4.10;;;;;;;13.12;57.30;98980.05;104881;1263;74386;-23
2023/03/22 09:11:14;;;;;;;5.60;3.90;;;;;;;13.23;57.28;98982.64;105019;1264;61055;-23
2023/03/22 09:13:47;;;;;;;6.70;4.10;;;;;;;13.26;57.03;98984.70;104850;1264;61027;-23
2023/03/22 09:16:19;;;;;;;5.40;4.00;;;;;;;13.22;57.32;98986.75;104738;1268;74540;-23
2023/03/22 09:18:49;;;;;;;5.70;4.00;;;;;;;13.59;55.49;98981.90;105102;1264;75028;-23
2023/03/22 09:21:20;;;;;;;3.90;3.20;;;;;;;14.18;54.59;98977.02;105095;1264;74194;-23
2023/03/22 09:24:12;;;;;;;4.40;2.80;;;;;;;14.83;50.27;98979.45;104804;1264;61950;-23
2023/03/22 09:26:45;;;;;;;3.70;2.90;;;;;;;14.82;49.52;98980.41;104797;1265;61779;-23
2023/03/22 09:29:15;;;;;;;3.80;3.20;;;;;;;14.62;50.48;98980.34;104988;1264;74551;-23
2023/03/22 09:31:47;;;;;;;4.10;3.00;;;;;;;14.22;50.46;98983.20;104855;1268;74880;-23
2023/03/22 09:34:23;;;;;;;4.20;3.00;;;;;;;13.78;52.63;98981.73;104746;1263;73691;-24
2023/03/22 09:36:51;;;;;;;3.90;2.80;;;;;;;13.71;53.48;98979.96;104837;1263;62002;-26
2023/03/22 09:39:23;;;;;;;5.80;3.20;;;;;;;13.82;53.46;98979.30;104904;1266;61831;-23
2023/03/22 09:41:56;;;;;;;6.50;3.40;;;;;;;13.83;53.99;98976.76;105024;1267;74590;-23
2023/03/22 09:44:33;;;;;;;4.40;3.20;;;;;;;13.78;53.49;98973.47;104857;1269;74933;-22
2023/03/22 09:47:04;;;;;;;4.20;3.10;;;;;;;13.57;52.98;98978.80;104760;1264;74250;-24
2023/03/22 09:49:39;;;;;;;3.40;2.50;;;;;;;13.49;53.74;98973.06;104825;1266;61583;-23
2023/03/22 09:52:20;;;;;;;3.80;3.20;;;;;;;13.41;53.95;98968.80;104724;1270;61664;-23
2023/03/22 09:54:49;;;;;;;5.00;3.20;;;;;;;13.58;53.65;98971.70;104792;1264;74621;-23
2023/03/22 09:57:40;;;;;;;4.20;3.10;;;;;;;14.29;50.88;98970.86;105650;1253;74683;-23
2023/03/22 10:00:19;;;;;;;12.30;2.90;;;;;;;14.86;50.84;98970.68;105622;1253;74215;-23
2023/03/22 10:03:04;;;;;;;4.30;2.90;;;;;;;15.46;49.03;98969.54;105662;1253;61158;-23
2023/03/22 10:05:54;;;;;;;3.70;2.60;;;;;;;15.86;47.61;98968.11;105593;1253;61148;-23
2023/03/22 10:08:35;;;;;;;5.10;3.00;;;;;;;16.34;46.68;98966.69;105922;1253;74474;-23
2023/03/22 10:11:35;;;;;;;4.10;2.40;;;;;;;16.57;45.67;98969.31;105732;1253;75680;-23
2023/03/22 10:14:32;;;;;;;5.40;3.90;;;;;;;17.12;45.22;98963.11;105886;1253;74056;-23
2023/03/22 10:17:04;;;;;;;6.90;4.60;;;;;;;17.09;44.57;98957.83;105738;1252;62621;-23
2023/03/22 10:19:46;;;;;;;6.80;3.40;;;;;;;16.26;45.68;98960.02;105454;1260;61874;-23
2023/03/22 10:22:16;;;;;;;8.30;3.80;;;;;;;16.24;46.39;98960.60;105463;1253;73428;-24
2023/03/22 10:24:45;;;;;;;5.00;3.30;;;;;;;16.59;45.12;98960.73;105413;1258;75647;-24
2023/03/22 10:27:18;;;;;;;4.60;2.10;;;;;;;16.44;45.34;98955.72;105448;1258;73160;-25
2023/03/22 10:30:07;;;;;;;6.50;3.00;;;;;;;16.82;44.72;98954.38;105568;1260;61793;-24
2023/03/22 10:32:42;;;;;;;3.50;2.60;;;;;;;16.92;43.72;98949.87;105651;1258;61885;-23
2023/03/22 10:35:25;;;;;;;5.20;3.60;;;;;;;16.18;45.10;98949.82;105650;1253;74697;-24
2023/03/22 10:37:55;;;;;;;3.80;2.90;;;;;;;15.99;46.37;98948.33;105832;1253;75891;-23
2023/03/22 10:40:32;;;;;;;4.90;3.00;;;;;;;16.44;45.13;98946.55;105493;1260;74207;-24
2023/03/22 10:43:26;;;;;;;2.40;1.90;;;;;;;16.81;43.75;98938.90;105401;1254;61097;-23
2023/03/22 10:45:55;;;;;;;;;;;;;;;16.51;43.64;98941.05;105409;1254;61708;-24
2023/03/22 10:48:28;;;;;;;4.40;2.70;;;;;;;16.53;43.35;98936.38;105422;1256;74471;-25
2023/03/22 10:50:58;;;;;;;4.10;2.70;;;;;;;16.68;44.22;98936.50;105480;1260;75726;-24
2023/03/22 10:53:39;;;;;;;6.10;2.80;;;;;;;16.69;43.17;98932.16;105323;1254;74217;-24
2023/03/22 10:56:11;;;;;;;3.80;2.90;;;;;;;15.89;45.33;98933.63;105327;1260;61734;-24
2023/03/22 10:58:40;;;;;;;4.60;3.50;;;;;;;15.88;45.91;98935.02;105225;1260;61919;-24
2023/03/22 11:01:38;;;;;;;4.60;3.50;;;;;;;15.67;45.85;98926.98;105540;1254;74441;-24
2023/03/22 11:04:12;;;;;;;7.30;3.30;;;;;;;15.98;45.62;98929.90;105504;1254;75879;-22
2023/03/22 11:06:50;;;;;;;6.10;3.20;;;;;;;15.99;44.29;98925.90;105226;1254;73785;-25
2023/03/22 11:09:22;;;;;;;4.40;2.70;;;;;;;15.98;44.60;98926.04;105275;1263;61607;-24
2023/03/22 11:11:53;;;;;;;6.30;3.20;;;;;;;15.68;44.69;98918.32;105497;1259;61603;-23
2023/03/22 11:14:57;;;;;;;3.70;2.60;;;;;;;15.83;44.71;98910.48;105248;1261;74541;-24
2023/03/22 11:17:26;;;;;;;3.60;2.70;;;;;;;15.72;45.18;98914.52;105205;1260;75629;-25
2023/03/22 11:20:00;;;;;;;2.50;2.20;;;;;;;16.31;44.27;98909.06;105234;1263;74144;-24
2023/03/22 11:23:01;;;;;;;;;;;;;;;16.17;44.04;98907.83;105248;1259;61603;-24
2023/03/22 11:25:44;;;;;;;7.60;2.30;;;;;;;16.07;44.35;98907.04;105178;1261;61074;-24
2023/03/22 11:28:46;;;;;;;4.60;3.30;;;;;;;16.06;43.55;98906.27;105105;1260;73570;-24
2023/03/22 11:31:16;;;;;;;3.50;2.80;;;;;;;16.20;44.41;98900.64;105048;1261;75865;-24
2023/03/22 11:33:56;;;;;;;4.10;2.60;;;;;;;16.43;43.69;98896.40;104900;1267;74155;-24
2023/03/22 11:36:25;;;;;;;1.60;1.30;;;;;;;16.09;43.24;98896.48;105196;1267;61971;-25
2023/03/22 11:39:02;;;;;;;3.30;2.80;;;;;;;16.02;44.69;98893.38;104942;1264;61866;-23
2023/03/22 11:41:35;;;;;;;3.20;2.50;;;;;;;16.03;44.19;98892.42;104929;1262;75044;-24
2023/03/22 11:44:09;;;;;;;5.10;2.30;;;;;;;16.17;43.27;98893.93;105192;1262;75801;-24
2023/03/22 11:46:47;;;;;;;3.00;2.20;;;;;;;16.02;42.95;98882.38;105087;1266;74203;-23
2023/03/22 11:49:16;;;;;;;2.60;1.80;;;;;;;15.58;42.82;98876.67;104866;1259;61111;-24
2023/03/22 11:51:50;;;;;;;2.30;1.60;;;;;;;15.28;44.21;98875.27;105170;1261;61970;-24
2023/03/22 11:54:30;;;;;;;1.80;1.40;;;;;;;15.31;43.10;98876.14;105411;1253;74627;-23
2023/03/22 11:57:01;;;;;;;4.00;2.00;;;;;;;14.98;43.28;98875.70;105280;1260;75633;-24
2023/03/22 11:59:38;;;;;;;9.90;2.90;;;;;;;15.13;43.27;98876.60;105579;1253;74184;-23
2023/03/22 12:02:12;;;;;;;2.00;1.40;;;;;;;15.06;42.78;98878.54;105660;1260;61189;-23
2023/03/22 12:04:41;;;;;;;3.10;2.00;;;;;;;15.11;42.97;98878.34;105706;1253;61862;-25
2023/03/22 12:07:15;;;;;;;2.70;2.00;;;;;;;15.43;44.52;98875.27;105560;1253;74809;-23
2023/03/22 12:10:02;;;;;;;2.30;1.70;;;;;;;15.57;43.83;98875.39;105416;1259;76346;-23
2023/03/22 12:12:41;;;;;;;2.10;1.30;;;;;;;14.92;43.25;98871.56;105373;1253;74006;-23
2023/03/22 12:15:29;;;;;;;2.80;1.50;;;;;;;15.13;41.74;98868.67;105174;1254;61287;-26